sensor_id;sensor_type;location;lat;lon;timestamp;temperature;humidity
3542;DHT22;1785;47.388;8.538;2023-12-07T00:01:47;7.10;99.90
3542;DHT22;1785;47.388;8.538;2023-12-07T00:04:13;7.00;99.90
3542;DHT22;1785;47.388;8.538;2023-12-07T00:06:39;7.00;99.90
3542;DHT22;1785;47.388;8.538;2023-12-07T00:09:06;7.00;99.90
3542;DHT22;1785;47.388;8.538;2023-12-07T00:11:32;6.80;99.90
3542;DHT22;1785;47.388;8.538;2023-12-07T00:13:58;6.90;99.90
3542;DHT22;1785;47.388;8.538;2023-12-07T00:16:24;7.00;99.90
3542;DHT22;1785;47.388;8.538;2023-12-07T00:18:51;7.00;99.90
3542;DHT22;1785;47.388;8.538;2023-12-07T00:21:17;6.90;99.90
3542;DHT22;1785;47.388;8.538;2023-12-07T00:23:44;7.00;99.90
3542;DHT22;1785;47.388;8.538;2023-12-07T00:26:10;6.80;99.90
3542;DHT22;1785;47.388;8.538;2023-12-07T00:28:36;6.70;99.90
3542;DHT22;1785;47.388;8.538;2023-12-07T00:31:03;6.90;99.90
3542;DHT22;1785;47.388;8.538;2023-12-07T00:33:29;6.80;99.90
3542;DHT22;1785;47.388;8.538;2023-12-07T00:35:56;6.80;99.90
3542;DHT22;1785;47.388;8.538;2023-12-07T00:38:23;7.00;99.90
3542;DHT22;1785;47.388;8.538;2023-12-07T00:40:49;7.00;99.90
3542;DHT22;1785;47.388;8.538;2023-12-07T00:43:16;7.10;99.90
3542;DHT22;1785;47.388;8.538;2023-12-07T00:45:43;7.20;99.90
3542;DHT22;1785;47.388;8.538;2023-12-07T00:48:09;7.20;99.90
3542;DHT22;1785;47.388;8.538;2023-12-07T00:50:35;7.30;99.90
3542;DHT22;1785;47.388;8.538;2023-12-07T00:53:05;7.30;99.90
3542;DHT22;1785;47.388;8.538;2023-12-07T00:55:39;7.10;99.90
3542;DHT22;1785;47.388;8.538;2023-12-07T00:58:06;6.80;99.90
3542;DHT22;1785;47.388;8.538;2023-12-07T01:00:32;6.60;99.90
3542;DHT22;1785;47.388;8.538;2023-12-07T01:02:58;6.80;99.90
3542;DHT22;1785;47.388;8.538;2023-12-07T01:05:25;6.80;99.90
3542;DHT22;1785;47.388;8.538;2023-12-07T01:07:51;6.80;99.90
3542;DHT22;1785;47.388;8.538;2023-12-07T01:10:18;6.70;99.90
3542;DHT22;1785;47.388;8.538;2023-12-07T01:12:44;6.70;99.90
3542;DHT22;1785;47.388;8.538;2023-12-07T01:15:10;6.70;99.90
3542;DHT22;1785;47.388;8.538;2023-12-07T01:17:37;6.50;99.90
3542;DHT22;1785;47.388;8.538;2023-12-07T01:20:05;6.50;99.90
3542;DHT22;1785;47.388;8.538;2023-12-07T01:22:33;6.40;99.90
3542;DHT22;1785;47.388;8.538;2023-12-07T01:24:59;6.50;99.90
3542;DHT22;1785;47.388;8.538;2023-12-07T01:27:26;6.60;99.90
3542;DHT22;1785;47.388;8.538;2023-12-07T01:29:53;6.60;99.90
3542;DHT22;1785;47.388;8.538;2023-12-07T01:32:19;6.70;99.90
3542;DHT22;1785;47.388;8.538;2023-12-07T01:34:45;6.60;99.90
3542;DHT22;1785;47.388;8.538;2023-12-07T01:37:11;6.50;99.90
3542;DHT22;1785;47.388;8.538;2023-12-07T01:39:42;6.60;99.90
3542;DHT22;1785;47.388;8.538;2023-12-07T01:42:09;6.70;99.90
3542;DHT22;1785;47.388;8.538;2023-12-07T01:44:37;6.60;99.90
3542;DHT22;1785;47.388;8.538;2023-12-07T01:47:04;6.60;99.90
3542;DHT22;1785;47.388;8.538;2023-12-07T01:49:31;6.40;99.90
3542;DHT22;1785;47.388;8.538;2023-12-07T01:51:58;6.40;99.90
3542;DHT22;1785;47.388;8.538;2023-12-07T01:54:24;6.60;99.90
3542;DHT22;1785;47.388;8.538;2023-12-07T01:56:51;6.70;99.90
3542;DHT22;1785;47.388;8.538;2023-12-07T01:59:18;6.70;99.90
3542;DHT22;1785;47.388;8.538;2023-12-07T02:01:45;6.80;99.90
3542;DHT22;1785;47.388;8.538;2023-12-07T02:04:11;6.90;99.90
3542;DHT22;1785;47.388;8.538;2023-12-07T02:06:38;6.60;99.90
3542;DHT22;1785;47.388;8.538;2023-12-07T02:09:04;6.60;99.90
3542;DHT22;1785;47.388;8.538;2023-12-07T02:11:31;6.50;99.90
3542;DHT22;1785;47.388;8.538;2023-12-07T02:13:57;6.60;99.90
3542;DHT22;1785;47.388;8.538;2023-12-07T02:16:27;6.60;99.90
3542;DHT22;1785;47.388;8.538;2023-12-07T02:19:02;6.70;99.90
3542;DHT22;1785;47.388;8.538;2023-12-07T02:21:36;6.60;99.90
3542;DHT22;1785;47.388;8.538;2023-12-07T02:24:05;6.70;99.90
3542;DHT22;1785;47.388;8.538;2023-12-07T02:26:34;6.70;99.90
3542;DHT22;1785;47.388;8.538;2023-12-07T02:29:00;6.60;99.90
3542;DHT22;1785;47.388;8.538;2023-12-07T02:31:26;6.60;99.90
3542;DHT22;1785;47.388;8.538;2023-12-07T02:33:53;6.50;99.90
3542;DHT22;1785;47.388;8.538;2023-12-07T02:36:21;6.50;99.90
3542;DHT22;1785;47.388;8.538;2023-12-07T02:38:50;6.40;99.90
3542;DHT22;1785;47.388;8.538;2023-12-07T02:41:18;6.20;99.90
3542;DHT22;1785;47.388;8.538;2023-12-07T02:43:45;6.00;99.90
3542;DHT22;1785;47.388;8.538;2023-12-07T02:46:11;5.80;99.90
3542;DHT22;1785;47.388;8.538;2023-12-07T02:48:38;6.00;99.90
3542;DHT22;1785;47.388;8.538;2023-12-07T02:51:04;6.10;99.90
3542;DHT22;1785;47.388;8.538;2023-12-07T02:53:31;6.10;99.90
3542;DHT22;1785;47.388;8.538;2023-12-07T02:55:57;6.00;99.90
3542;DHT22;1785;47.388;8.538;2023-12-07T02:58:23;6.00;99.90
3542;DHT22;1785;47.388;8.538;2023-12-07T03:00:50;5.90;99.90
3542;DHT22;1785;47.388;8.538;2023-12-07T03:03:17;6.00;99.90
3542;DHT22;1785;47.388;8.538;2023-12-07T03:05:43;6.10;99.90
3542;DHT22;1785;47.388;8.538;2023-12-07T03:08:09;6.10;99.90
3542;DHT22;1785;47.388;8.538;2023-12-07T03:10:35;6.10;99.90
3542;DHT22;1785;47.388;8.538;2023-12-07T03:13:01;6.10;99.90
3542;DHT22;1785;47.388;8.538;2023-12-07T03:15:28;6.10;99.90
3542;DHT22;1785;47.388;8.538;2023-12-07T03:17:55;5.90;99.90
3542;DHT22;1785;47.388;8.538;2023-12-07T03:20:21;5.70;99.90
3542;DHT22;1785;47.388;8.538;2023-12-07T03:22:47;5.60;99.90
3542;DHT22;1785;47.388;8.538;2023-12-07T03:25:14;5.60;99.90
3542;DHT22;1785;47.388;8.538;2023-12-07T03:27:40;5.80;99.90
3542;DHT22;1785;47.388;8.538;2023-12-07T03:30:07;5.60;99.90
3542;DHT22;1785;47.388;8.538;2023-12-07T03:32:34;5.40;99.90
3542;DHT22;1785;47.388;8.538;2023-12-07T03:35:01;5.20;99.90
3542;DHT22;1785;47.388;8.538;2023-12-07T03:37:27;5.30;99.90
3542;DHT22;1785;47.388;8.538;2023-12-07T03:39:53;5.50;99.90
3542;DHT22;1785;47.388;8.538;2023-12-07T03:42:19;5.70;99.90
3542;DHT22;1785;47.388;8.538;2023-12-07T03:44:46;5.70;99.90
3542;DHT22;1785;47.388;8.538;2023-12-07T03:47:13;5.30;99.90
3542;DHT22;1785;47.388;8.538;2023-12-07T03:49:39;5.00;99.90
3542;DHT22;1785;47.388;8.538;2023-12-07T03:52:07;5.30;99.90
3542;DHT22;1785;47.388;8.538;2023-12-07T03:54:34;5.50;99.90
3542;DHT22;1785;47.388;8.538;2023-12-07T03:57:00;5.60;99.90
3542;DHT22;1785;47.388;8.538;2023-12-07T03:59:27;5.30;99.90
3542;DHT22;1785;47.388;8.538;2023-12-07T04:01:53;5.20;99.90
3542;DHT22;1785;47.388;8.538;2023-12-07T04:04:20;5.20;99.90
3542;DHT22;1785;47.388;8.538;2023-12-07T04:06:46;5.10;99.90
3542;DHT22;1785;47.388;8.538;2023-12-07T04:09:13;5.30;99.90
3542;DHT22;1785;47.388;8.538;2023-12-07T04:11:39;5.30;99.90
3542;DHT22;1785;47.388;8.538;2023-12-07T04:14:05;5.50;99.90
3542;DHT22;1785;47.388;8.538;2023-12-07T04:16:31;5.50;99.90
3542;DHT22;1785;47.388;8.538;2023-12-07T04:18:58;5.30;99.90
3542;DHT22;1785;47.388;8.538;2023-12-07T04:21:24;5.20;99.90
3542;DHT22;1785;47.388;8.538;2023-12-07T04:23:50;5.40;99.90
3542;DHT22;1785;47.388;8.538;2023-12-07T04:26:17;5.50;99.90
3542;DHT22;1785;47.388;8.538;2023-12-07T04:28:43;5.70;99.90
3542;DHT22;1785;47.388;8.538;2023-12-07T04:31:09;5.70;99.90
3542;DHT22;1785;47.388;8.538;2023-12-07T04:33:36;5.60;99.90
3542;DHT22;1785;47.388;8.538;2023-12-07T04:36:03;5.60;99.90
3542;DHT22;1785;47.388;8.538;2023-12-07T04:38:30;5.60;99.90
3542;DHT22;1785;47.388;8.538;2023-12-07T04:40:57;5.80;99.90
3542;DHT22;1785;47.388;8.538;2023-12-07T04:43:25;5.90;99.90
3542;DHT22;1785;47.388;8.538;2023-12-07T04:45:51;5.90;99.90
3542;DHT22;1785;47.388;8.538;2023-12-07T04:48:18;5.90;99.90
3542;DHT22;1785;47.388;8.538;2023-12-07T04:50:44;5.90;99.90
3542;DHT22;1785;47.388;8.538;2023-12-07T04:53:10;5.90;99.90
3542;DHT22;1785;47.388;8.538;2023-12-07T04:55:37;5.90;99.90
3542;DHT22;1785;47.388;8.538;2023-12-07T04:58:03;6.00;99.90
3542;DHT22;1785;47.388;8.538;2023-12-07T05:00:30;6.00;99.90
3542;DHT22;1785;47.388;8.538;2023-12-07T05:02:56;5.90;99.90
3542;DHT22;1785;47.388;8.538;2023-12-07T05:05:22;5.90;99.90
3542;DHT22;1785;47.388;8.538;2023-12-07T05:07:50;6.00;99.90
3542;DHT22;1785;47.388;8.538;2023-12-07T05:10:16;6.00;99.90
3542;DHT22;1785;47.388;8.538;2023-12-07T05:12:42;5.80;99.90
3542;DHT22;1785;47.388;8.538;2023-12-07T05:15:09;5.90;99.90
3542;DHT22;1785;47.388;8.538;2023-12-07T05:17:36;5.80;99.90
3542;DHT22;1785;47.388;8.538;2023-12-07T05:20:03;5.60;99.90
3542;DHT22;1785;47.388;8.538;2023-12-07T05:22:30;5.50;99.90
3542;DHT22;1785;47.388;8.538;2023-12-07T05:24:57;5.30;99.90
3542;DHT22;1785;47.388;8.538;2023-12-07T05:27:23;5.40;99.90
3542;DHT22;1785;47.388;8.538;2023-12-07T05:29:49;5.70;99.90
3542;DHT22;1785;47.388;8.538;2023-12-07T05:32:16;5.50;99.90
3542;DHT22;1785;47.388;8.538;2023-12-07T05:34:42;5.20;99.90
3542;DHT22;1785;47.388;8.538;2023-12-07T05:37:09;5.30;99.90
3542;DHT22;1785;47.388;8.538;2023-12-07T05:39:35;5.40;99.90
3542;DHT22;1785;47.388;8.538;2023-12-07T05:42:01;5.60;99.90
3542;DHT22;1785;47.388;8.538;2023-12-07T05:44:29;5.70;99.90
3542;DHT22;1785;47.388;8.538;2023-12-07T05:46:56;5.80;99.90
3542;DHT22;1785;47.388;8.538;2023-12-07T05:49:23;5.70;99.90
3542;DHT22;1785;47.388;8.538;2023-12-07T05:51:51;5.50;99.90
3542;DHT22;1785;47.388;8.538;2023-12-07T05:54:18;5.60;99.90
3542;DHT22;1785;47.388;8.538;2023-12-07T05:56:46;5.60;99.90
3542;DHT22;1785;47.388;8.538;2023-12-07T05:59:12;5.40;99.90
3542;DHT22;1785;47.388;8.538;2023-12-07T06:01:39;5.40;99.90
3542;DHT22;1785;47.388;8.538;2023-12-07T06:04:07;5.50;99.90
3542;DHT22;1785;47.388;8.538;2023-12-07T06:06:34;5.50;99.90
3542;DHT22;1785;47.388;8.538;2023-12-07T06:09:01;5.60;99.90
3542;DHT22;1785;47.388;8.538;2023-12-07T06:11:28;5.60;99.90
3542;DHT22;1785;47.388;8.538;2023-12-07T06:13:55;5.50;99.90
3542;DHT22;1785;47.388;8.538;2023-12-07T06:16:24;5.70;99.90
3542;DHT22;1785;47.388;8.538;2023-12-07T06:18:52;5.30;99.90
3542;DHT22;1785;47.388;8.538;2023-12-07T06:21:18;5.00;99.90
3542;DHT22;1785;47.388;8.538;2023-12-07T06:23:45;4.70;99.90
3542;DHT22;1785;47.388;8.538;2023-12-07T06:26:13;4.80;99.90
3542;DHT22;1785;47.388;8.538;2023-12-07T06:28:40;4.70;99.90
3542;DHT22;1785;47.388;8.538;2023-12-07T06:31:08;4.80;99.90
3542;DHT22;1785;47.388;8.538;2023-12-07T06:33:35;5.00;99.90
3542;DHT22;1785;47.388;8.538;2023-12-07T06:36:04;4.80;99.90
3542;DHT22;1785;47.388;8.538;2023-12-07T06:38:30;4.70;99.90
3542;DHT22;1785;47.388;8.538;2023-12-07T06:40:57;4.70;99.90
3542;DHT22;1785;47.388;8.538;2023-12-07T06:43:25;4.80;99.90
3542;DHT22;1785;47.388;8.538;2023-12-07T06:45:51;4.80;99.90
3542;DHT22;1785;47.388;8.538;2023-12-07T06:48:18;4.90;99.90
3542;DHT22;1785;47.388;8.538;2023-12-07T06:50:44;4.90;99.90
3542;DHT22;1785;47.388;8.538;2023-12-07T06:53:11;4.70;99.90
3542;DHT22;1785;47.388;8.538;2023-12-07T06:55:37;4.40;99.90
3542;DHT22;1785;47.388;8.538;2023-12-07T06:58:03;4.60;99.90
3542;DHT22;1785;47.388;8.538;2023-12-07T07:00:31;4.40;99.90
3542;DHT22;1785;47.388;8.538;2023-12-07T07:02:58;4.60;99.90
3542;DHT22;1785;47.388;8.538;2023-12-07T07:05:24;4.30;99.90
3542;DHT22;1785;47.388;8.538;2023-12-07T07:07:51;4.00;99.90
3542;DHT22;1785;47.388;8.538;2023-12-07T07:10:18;4.00;99.90
3542;DHT22;1785;47.388;8.538;2023-12-07T07:12:44;4.10;99.90
3542;DHT22;1785;47.388;8.538;2023-12-07T07:15:11;4.30;99.90
3542;DHT22;1785;47.388;8.538;2023-12-07T07:17:40;4.50;99.90
3542;DHT22;1785;47.388;8.538;2023-12-07T07:20:07;4.40;99.90
3542;DHT22;1785;47.388;8.538;2023-12-07T07:22:35;3.80;99.90
3542;DHT22;1785;47.388;8.538;2023-12-07T07:25:01;3.70;99.90
3542;DHT22;1785;47.388;8.538;2023-12-07T07:27:28;3.50;99.90
3542;DHT22;1785;47.388;8.538;2023-12-07T07:29:55;3.70;99.90
3542;DHT22;1785;47.388;8.538;2023-12-07T07:32:22;3.80;99.90
3542;DHT22;1785;47.388;8.538;2023-12-07T07:34:49;4.00;99.90
3542;DHT22;1785;47.388;8.538;2023-12-07T07:37:16;4.00;99.90
3542;DHT22;1785;47.388;8.538;2023-12-07T07:39:42;4.20;99.90
3542;DHT22;1785;47.388;8.538;2023-12-07T07:42:08;4.00;99.90
3542;DHT22;1785;47.388;8.538;2023-12-07T07:44:38;3.90;99.90
3542;DHT22;1785;47.388;8.538;2023-12-07T07:47:04;3.70;99.90
3542;DHT22;1785;47.388;8.538;2023-12-07T07:49:31;3.90;99.90
3542;DHT22;1785;47.388;8.538;2023-12-07T07:51:58;4.00;99.90
3542;DHT22;1785;47.388;8.538;2023-12-07T07:54:24;4.10;99.90
3542;DHT22;1785;47.388;8.538;2023-12-07T07:56:51;4.30;99.90
3542;DHT22;1785;47.388;8.538;2023-12-07T07:59:17;4.40;99.90
3542;DHT22;1785;47.388;8.538;2023-12-07T08:01:45;4.50;99.90
3542;DHT22;1785;47.388;8.538;2023-12-07T08:04:13;4.60;99.90
3542;DHT22;1785;47.388;8.538;2023-12-07T08:06:39;4.10;99.90
3542;DHT22;1785;47.388;8.538;2023-12-07T08:09:08;4.20;99.90
3542;DHT22;1785;47.388;8.538;2023-12-07T08:11:34;3.90;99.90
3542;DHT22;1785;47.388;8.538;2023-12-07T08:14:01;4.10;99.90
3542;DHT22;1785;47.388;8.538;2023-12-07T08:16:27;4.00;99.90
3542;DHT22;1785;47.388;8.538;2023-12-07T08:18:54;4.00;99.90
3542;DHT22;1785;47.388;8.538;2023-12-07T08:21:21;4.00;99.90
3542;DHT22;1785;47.388;8.538;2023-12-07T08:23:47;4.10;99.90
3542;DHT22;1785;47.388;8.538;2023-12-07T08:26:15;4.20;99.90
3542;DHT22;1785;47.388;8.538;2023-12-07T08:28:41;4.20;99.90
3542;DHT22;1785;47.388;8.538;2023-12-07T08:31:08;4.40;99.90
3542;DHT22;1785;47.388;8.538;2023-12-07T08:33:34;4.40;99.90
3542;DHT22;1785;47.388;8.538;2023-12-07T08:36:01;4.30;99.90
3542;DHT22;1785;47.388;8.538;2023-12-07T08:38:27;4.30;99.90
3542;DHT22;1785;47.388;8.538;2023-12-07T08:40:54;4.40;99.90
3542;DHT22;1785;47.388;8.538;2023-12-07T08:43:22;4.60;99.90
3542;DHT22;1785;47.388;8.538;2023-12-07T08:45:49;4.70;99.90
3542;DHT22;1785;47.388;8.538;2023-12-07T08:48:16;4.80;99.90
3542;DHT22;1785;47.388;8.538;2023-12-07T08:50:42;4.70;99.90
3542;DHT22;1785;47.388;8.538;2023-12-07T08:53:09;4.90;99.90
3542;DHT22;1785;47.388;8.538;2023-12-07T08:55:35;5.00;99.90
3542;DHT22;1785;47.388;8.538;2023-12-07T08:58:01;5.30;99.90
3542;DHT22;1785;47.388;8.538;2023-12-07T09:00:31;5.20;99.90
3542;DHT22;1785;47.388;8.538;2023-12-07T09:02:57;5.40;99.90
3542;DHT22;1785;47.388;8.538;2023-12-07T09:05:25;5.60;99.90
3542;DHT22;1785;47.388;8.538;2023-12-07T09:07:52;5.10;99.90
3542;DHT22;1785;47.388;8.538;2023-12-07T09:10:19;4.70;99.90
3542;DHT22;1785;47.388;8.538;2023-12-07T09:12:46;4.50;99.90
3542;DHT22;1785;47.388;8.538;2023-12-07T09:15:12;4.20;99.90
3542;DHT22;1785;47.388;8.538;2023-12-07T09:17:40;4.20;99.90
3542;DHT22;1785;47.388;8.538;2023-12-07T09:20:08;3.90;99.90
3542;DHT22;1785;47.388;8.538;2023-12-07T09:22:37;4.20;99.90
3542;DHT22;1785;47.388;8.538;2023-12-07T09:25:05;4.20;99.90
3542;DHT22;1785;47.388;8.538;2023-12-07T09:27:34;4.10;99.90
3542;DHT22;1785;47.388;8.538;2023-12-07T09:30:00;3.90;99.90
3542;DHT22;1785;47.388;8.538;2023-12-07T09:32:27;3.80;99.90
3542;DHT22;1785;47.388;8.538;2023-12-07T09:34:54;3.80;99.90
3542;DHT22;1785;47.388;8.538;2023-12-07T09:37:21;4.10;99.90
3542;DHT22;1785;47.388;8.538;2023-12-07T09:39:48;4.20;99.90
3542;DHT22;1785;47.388;8.538;2023-12-07T09:42:14;4.20;99.90
3542;DHT22;1785;47.388;8.538;2023-12-07T09:44:40;4.00;99.90
3542;DHT22;1785;47.388;8.538;2023-12-07T09:47:07;3.70;99.90
3542;DHT22;1785;47.388;8.538;2023-12-07T09:49:33;3.90;99.90
3542;DHT22;1785;47.388;8.538;2023-12-07T09:52:01;4.20;99.90
3542;DHT22;1785;47.388;8.538;2023-12-07T09:54:29;4.30;99.90
3542;DHT22;1785;47.388;8.538;2023-12-07T09:56:56;4.30;99.90
3542;DHT22;1785;47.388;8.538;2023-12-07T09:59:23;4.60;99.90
3542;DHT22;1785;47.388;8.538;2023-12-07T10:01:50;4.50;99.90
3542;DHT22;1785;47.388;8.538;2023-12-07T10:04:19;4.30;99.90
3542;DHT22;1785;47.388;8.538;2023-12-07T10:06:46;4.30;99.90
3542;DHT22;1785;47.388;8.538;2023-12-07T10:09:14;4.60;99.90
3542;DHT22;1785;47.388;8.538;2023-12-07T10:11:40;4.40;99.90
3542;DHT22;1785;47.388;8.538;2023-12-07T10:14:07;4.10;99.90
3542;DHT22;1785;47.388;8.538;2023-12-07T10:16:35;4.10;99.90
3542;DHT22;1785;47.388;8.538;2023-12-07T10:19:13;4.20;99.90
3542;DHT22;1785;47.388;8.538;2023-12-07T10:21:39;4.10;99.90
3542;DHT22;1785;47.388;8.538;2023-12-07T10:24:06;4.00;99.90
3542;DHT22;1785;47.388;8.538;2023-12-07T10:26:34;4.00;99.90
3542;DHT22;1785;47.388;8.538;2023-12-07T10:29:01;4.00;99.90
3542;DHT22;1785;47.388;8.538;2023-12-07T10:31:28;4.20;99.90
3542;DHT22;1785;47.388;8.538;2023-12-07T10:33:56;4.30;99.90
3542;DHT22;1785;47.388;8.538;2023-12-07T10:36:23;4.30;99.90
3542;DHT22;1785;47.388;8.538;2023-12-07T10:38:49;4.50;99.90
3542;DHT22;1785;47.388;8.538;2023-12-07T10:41:18;4.50;99.90
3542;DHT22;1785;47.388;8.538;2023-12-07T10:43:57;4.50;99.90
3542;DHT22;1785;47.388;8.538;2023-12-07T10:46:26;4.80;99.90
3542;DHT22;1785;47.388;8.538;2023-12-07T10:48:57;4.80;99.90
3542;DHT22;1785;47.388;8.538;2023-12-07T10:51:31;4.80;99.90
3542;DHT22;1785;47.388;8.538;2023-12-07T10:53:59;4.90;99.90
3542;DHT22;1785;47.388;8.538;2023-12-07T10:56:34;4.50;99.90
3542;DHT22;1785;47.388;8.538;2023-12-07T10:59:03;4.60;99.90
3542;DHT22;1785;47.388;8.538;2023-12-07T11:01:30;4.70;99.90
3542;DHT22;1785;47.388;8.538;2023-12-07T11:03:58;4.70;99.90
3542;DHT22;1785;47.388;8.538;2023-12-07T11:06:25;4.60;99.90
3542;DHT22;1785;47.388;8.538;2023-12-07T11:08:55;4.40;99.90
3542;DHT22;1785;47.388;8.538;2023-12-07T11:11:27;4.60;99.90
3542;DHT22;1785;47.388;8.538;2023-12-07T11:13:58;4.40;99.90
3542;DHT22;1785;47.388;8.538;2023-12-07T11:16:34;4.10;99.90
3542;DHT22;1785;47.388;8.538;2023-12-07T11:19:02;3.90;99.90
3542;DHT22;1785;47.388;8.538;2023-12-07T11:21:28;3.90;99.90
3542;DHT22;1785;47.388;8.538;2023-12-07T11:23:54;3.90;99.90
3542;DHT22;1785;47.388;8.538;2023-12-07T11:26:22;4.20;99.90
3542;DHT22;1785;47.388;8.538;2023-12-07T11:28:49;4.40;99.90
3542;DHT22;1785;47.388;8.538;2023-12-07T11:31:16;4.50;99.90
3542;DHT22;1785;47.388;8.538;2023-12-07T11:33:44;4.60;99.90
3542;DHT22;1785;47.388;8.538;2023-12-07T11:36:11;4.80;99.90
3542;DHT22;1785;47.388;8.538;2023-12-07T11:38:39;5.00;99.90
3542;DHT22;1785;47.388;8.538;2023-12-07T11:41:30;5.20;99.90
3542;DHT22;1785;47.388;8.538;2023-12-07T11:44:01;5.50;99.90
3542;DHT22;1785;47.388;8.538;2023-12-07T11:46:28;5.50;99.90
3542;DHT22;1785;47.388;8.538;2023-12-07T11:48:56;5.30;99.90
3542;DHT22;1785;47.388;8.538;2023-12-07T11:51:23;5.20;99.90
3542;DHT22;1785;47.388;8.538;2023-12-07T11:53:50;5.30;99.90
3542;DHT22;1785;47.388;8.538;2023-12-07T11:56:17;5.40;99.90
3542;DHT22;1785;47.388;8.538;2023-12-07T11:58:46;5.00;99.90
3542;DHT22;1785;47.388;8.538;2023-12-07T12:01:13;4.50;99.90
3542;DHT22;1785;47.388;8.538;2023-12-07T12:03:40;4.60;99.90
3542;DHT22;1785;47.388;8.538;2023-12-07T12:06:08;4.90;99.90
3542;DHT22;1785;47.388;8.538;2023-12-07T12:08:36;5.10;99.90
3542;DHT22;1785;47.388;8.538;2023-12-07T12:11:03;4.70;99.90
3542;DHT22;1785;47.388;8.538;2023-12-07T12:13:33;4.50;99.90
3542;DHT22;1785;47.388;8.538;2023-12-07T12:16:00;4.60;99.90
3542;DHT22;1785;47.388;8.538;2023-12-07T12:18:27;4.40;99.90
3542;DHT22;1785;47.388;8.538;2023-12-07T12:20:54;4.50;99.90
3542;DHT22;1785;47.388;8.538;2023-12-07T12:23:21;4.30;99.90
3542;DHT22;1785;47.388;8.538;2023-12-07T12:25:48;4.50;99.90
3542;DHT22;1785;47.388;8.538;2023-12-07T12:28:19;4.70;99.90
3542;DHT22;1785;47.388;8.538;2023-12-07T12:30:48;4.80;99.90
3542;DHT22;1785;47.388;8.538;2023-12-07T12:33:16;4.70;99.90
3542;DHT22;1785;47.388;8.538;2023-12-07T12:35:43;4.50;99.90
3542;DHT22;1785;47.388;8.538;2023-12-07T12:38:10;4.70;99.90
3542;DHT22;1785;47.388;8.538;2023-12-07T12:40:37;4.70;99.90
3542;DHT22;1785;47.388;8.538;2023-12-07T12:43:04;4.60;99.90
3542;DHT22;1785;47.388;8.538;2023-12-07T12:45:31;4.70;99.90
3542;DHT22;1785;47.388;8.538;2023-12-07T12:47:59;4.80;99.90
3542;DHT22;1785;47.388;8.538;2023-12-07T12:50:36;5.00;99.90
3542;DHT22;1785;47.388;8.538;2023-12-07T12:53:04;5.10;99.90
3542;DHT22;1785;47.388;8.538;2023-12-07T12:55:32;4.60;99.90
3542;DHT22;1785;47.388;8.538;2023-12-07T12:58:00;4.70;99.90
3542;DHT22;1785;47.388;8.538;2023-12-07T13:00:29;4.80;99.90
3542;DHT22;1785;47.388;8.538;2023-12-07T13:02:56;4.80;99.90
3542;DHT22;1785;47.388;8.538;2023-12-07T13:05:22;4.70;99.90
3542;DHT22;1785;47.388;8.538;2023-12-07T13:07:49;4.40;99.90
3542;DHT22;1785;47.388;8.538;2023-12-07T13:10:15;4.20;99.90
3542;DHT22;1785;47.388;8.538;2023-12-07T13:12:42;4.20;99.90
3542;DHT22;1785;47.388;8.538;2023-12-07T13:15:09;4.80;99.90
3542;DHT22;1785;47.388;8.538;2023-12-07T13:17:36;4.90;99.90
3542;DHT22;1785;47.388;8.538;2023-12-07T13:20:05;4.70;99.90
3542;DHT22;1785;47.388;8.538;2023-12-07T13:22:33;4.20;99.90
3542;DHT22;1785;47.388;8.538;2023-12-07T13:24:59;4.40;99.90
3542;DHT22;1785;47.388;8.538;2023-12-07T13:27:25;4.50;99.90
3542;DHT22;1785;47.388;8.538;2023-12-07T13:29:52;4.60;99.90
3542;DHT22;1785;47.388;8.538;2023-12-07T13:32:19;4.80;99.90
3542;DHT22;1785;47.388;8.538;2023-12-07T13:34:46;4.90;99.90
3542;DHT22;1785;47.388;8.538;2023-12-07T13:37:12;4.70;99.90
3542;DHT22;1785;47.388;8.538;2023-12-07T13:39:39;4.40;99.90
3542;DHT22;1785;47.388;8.538;2023-12-07T13:42:06;4.40;99.90
3542;DHT22;1785;47.388;8.538;2023-12-07T13:44:35;4.60;99.90
3542;DHT22;1785;47.388;8.538;2023-12-07T13:47:02;5.00;99.90
3542;DHT22;1785;47.388;8.538;2023-12-07T13:49:30;5.10;99.90
3542;DHT22;1785;47.388;8.538;2023-12-07T13:51:56;4.80;99.90
3542;DHT22;1785;47.388;8.538;2023-12-07T13:54:23;4.70;99.90
3542;DHT22;1785;47.388;8.538;2023-12-07T13:56:49;4.40;99.90
3542;DHT22;1785;47.388;8.538;2023-12-07T13:59:15;4.20;99.90
3542;DHT22;1785;47.388;8.538;2023-12-07T14:01:41;4.00;99.90
3542;DHT22;1785;47.388;8.538;2023-12-07T14:04:08;3.90;99.90
3542;DHT22;1785;47.388;8.538;2023-12-07T14:06:35;4.10;99.90
3542;DHT22;1785;47.388;8.538;2023-12-07T14:09:01;3.90;99.90
3542;DHT22;1785;47.388;8.538;2023-12-07T14:11:28;3.80;99.90
3542;DHT22;1785;47.388;8.538;2023-12-07T14:13:55;3.90;99.90
3542;DHT22;1785;47.388;8.538;2023-12-07T14:16:21;4.00;99.90
3542;DHT22;1785;47.388;8.538;2023-12-07T14:18:47;4.30;99.90
3542;DHT22;1785;47.388;8.538;2023-12-07T14:21:13;4.80;99.90
3542;DHT22;1785;47.388;8.538;2023-12-07T14:23:45;5.00;99.90
3542;DHT22;1785;47.388;8.538;2023-12-07T14:26:11;5.20;99.90
3542;DHT22;1785;47.388;8.538;2023-12-07T14:28:38;5.40;99.90
3542;DHT22;1785;47.388;8.538;2023-12-07T14:31:04;5.50;99.90
3542;DHT22;1785;47.388;8.538;2023-12-07T14:33:32;5.50;99.90
3542;DHT22;1785;47.388;8.538;2023-12-07T14:35:58;5.30;99.90
3542;DHT22;1785;47.388;8.538;2023-12-07T14:38:24;5.40;99.90
3542;DHT22;1785;47.388;8.538;2023-12-07T14:40:52;5.00;99.90
3542;DHT22;1785;47.388;8.538;2023-12-07T14:43:20;4.90;99.90
3542;DHT22;1785;47.388;8.538;2023-12-07T14:45:46;5.00;99.90
3542;DHT22;1785;47.388;8.538;2023-12-07T14:48:13;5.00;99.90
3542;DHT22;1785;47.388;8.538;2023-12-07T14:50:40;5.00;99.90
3542;DHT22;1785;47.388;8.538;2023-12-07T14:53:06;4.80;99.90
3542;DHT22;1785;47.388;8.538;2023-12-07T14:55:32;4.80;99.90
3542;DHT22;1785;47.388;8.538;2023-12-07T14:57:59;5.00;99.90
3542;DHT22;1785;47.388;8.538;2023-12-07T15:00:27;5.00;99.90
3542;DHT22;1785;47.388;8.538;2023-12-07T15:02:54;4.80;99.90
3542;DHT22;1785;47.388;8.538;2023-12-07T15:05:22;4.80;99.90
3542;DHT22;1785;47.388;8.538;2023-12-07T15:07:48;4.70;99.90
3542;DHT22;1785;47.388;8.538;2023-12-07T15:10:16;4.60;99.90
3542;DHT22;1785;47.388;8.538;2023-12-07T15:12:42;4.80;99.90
3542;DHT22;1785;47.388;8.538;2023-12-07T15:15:10;4.70;99.90
3542;DHT22;1785;47.388;8.538;2023-12-07T15:17:36;4.80;99.90
3542;DHT22;1785;47.388;8.538;2023-12-07T15:20:03;4.90;99.90
3542;DHT22;1785;47.388;8.538;2023-12-07T15:22:30;5.00;99.90
3542;DHT22;1785;47.388;8.538;2023-12-07T15:24:56;5.00;99.90
3542;DHT22;1785;47.388;8.538;2023-12-07T15:27:23;4.90;99.90
3542;DHT22;1785;47.388;8.538;2023-12-07T15:29:50;4.60;99.90
3542;DHT22;1785;47.388;8.538;2023-12-07T15:32:18;4.50;99.90
3542;DHT22;1785;47.388;8.538;2023-12-07T15:34:45;4.10;99.90
3542;DHT22;1785;47.388;8.538;2023-12-07T15:37:11;3.80;99.90
3542;DHT22;1785;47.388;8.538;2023-12-07T15:39:39;3.80;99.90
3542;DHT22;1785;47.388;8.538;2023-12-07T15:42:06;3.70;99.90
3542;DHT22;1785;47.388;8.538;2023-12-07T15:44:33;3.80;99.90
3542;DHT22;1785;47.388;8.538;2023-12-07T15:47:00;3.90;99.90
3542;DHT22;1785;47.388;8.538;2023-12-07T15:49:27;4.20;99.90
3542;DHT22;1785;47.388;8.538;2023-12-07T15:51:53;4.40;99.90
3542;DHT22;1785;47.388;8.538;2023-12-07T15:54:20;4.40;99.90
3542;DHT22;1785;47.388;8.538;2023-12-07T15:56:47;4.60;99.90
3542;DHT22;1785;47.388;8.538;2023-12-07T15:59:14;4.80;99.90
3542;DHT22;1785;47.388;8.538;2023-12-07T16:01:40;4.90;99.90
3542;DHT22;1785;47.388;8.538;2023-12-07T16:04:06;5.00;99.90
3542;DHT22;1785;47.388;8.538;2023-12-07T16:06:33;5.00;99.90
3542;DHT22;1785;47.388;8.538;2023-12-07T16:09:00;4.70;99.90
3542;DHT22;1785;47.388;8.538;2023-12-07T16:11:26;4.60;99.90
3542;DHT22;1785;47.388;8.538;2023-12-07T16:13:52;4.40;99.90
3542;DHT22;1785;47.388;8.538;2023-12-07T16:16:19;4.40;99.90